Time;durP1;ratioP1;P1;durP2;ratioP2;P2;SDS_P1;SDS_P2;PMS_P1;PMS_P2;Temp;Humidity;BMP_temperature;BMP_pressure;BME280_temperature;BME280_humidity;BME280_pressure;Samples;Min_cycle;Max_cycle;Signal;HPM_P1;HPM_P2
2023/09/12 00:00:27;;;;;;;5.97;2.53;;;38.50;45.30;;;;;;5049200;28;20017;-62
2023/09/12 00:02:53;;;;;;;3.92;1.70;;;38.40;45.10;;;;;;5051955;28;20036;-64
2023/09/12 00:05:20;;;;;;;3.22;1.67;;;38.40;45.70;;;;;;5054981;28;20084;-61
2023/09/12 00:07:46;;;;;;;3.58;1.58;;;38.30;45.80;;;;;;5060669;28;20078;-65
2023/09/12 00:10:12;;;;;;;5.85;1.60;;;38.30;45.20;;;;;;5062655;28;20018;-62
2023/09/12 00:12:39;;;;;;;6.13;1.52;;;38.30;45.40;;;;;;5052185;28;20097;-62
2023/09/12 00:15:06;;;;;;;2.80;1.50;;;38.30;45.90;;;;;;5050332;28;20350;-62
2023/09/12 00:17:32;;;;;;;15.73;4.93;;;38.10;46.60;;;;;;5050225;28;20009;-59
2023/09/12 00:19:59;;;;;;;10.90;2.60;;;38.10;47.40;;;;;;5057764;28;20020;-65
2023/09/12 00:22:25;;;;;;;15.48;10.95;;;38.00;47.20;;;;;;5058900;28;20013;-61
2023/09/12 00:24:52;;;;;;;12.98;5.45;;;37.90;48.50;;;;;;5055692;28;20028;-63
2023/09/12 00:27:18;;;;;;;9.18;2.25;;;37.90;47.90;;;;;;5058837;28;20046;-61
2023/09/12 00:29:45;;;;;;;3.08;1.70;;;37.90;46.30;;;;;;5067764;28;20473;-62
2023/09/12 00:32:11;;;;;;;7.03;2.08;;;37.80;46.70;;;;;;5055029;28;20014;-58
2023/09/12 00:34:38;;;;;;;9.55;2.22;;;37.80;46.80;;;;;;5054315;28;20091;-58
2023/09/12 00:37:05;;;;;;;5.53;1.98;;;37.70;46.30;;;;;;5056858;28;20025;-63
2023/09/12 00:39:31;;;;;;;6.95;1.77;;;37.60;47.10;;;;;;5061565;28;20028;-61
2023/09/12 00:41:58;;;;;;;8.30;1.95;;;37.50;47.10;;;;;;5064088;28;20040;-59
2023/09/12 00:44:24;;;;;;;3.65;1.73;;;37.50;47.50;;;;;;5059066;28;20029;-62
2023/09/12 00:46:52;;;;;;;7.93;1.92;;;37.40;47.40;;;;;;5058877;28;20040;-62
2023/09/12 00:49:22;;;;;;;4.55;1.50;;;37.30;47.10;;;;;;5059006;28;20009;-60
2023/09/12 00:51:51;;;;;;;3.00;1.63;;;37.30;46.70;;;;;;5050109;28;20021;-61
2023/09/12 00:54:17;;;;;;;4.43;1.50;;;37.30;47.20;;;;;;5055478;28;20021;-61
2023/09/12 00:56:44;;;;;;;6.93;1.52;;;37.10;47.30;;;;;;5058862;28;20036;-62
2023/09/12 00:59:11;;;;;;;5.30;1.90;;;37.10;47.20;;;;;;5051296;28;20457;-62
2023/09/12 01:01:37;;;;;;;6.70;1.70;;;37.10;47.50;;;;;;5052891;28;20028;-62
2023/09/12 01:04:04;;;;;;;5.65;1.80;;;37.10;47.40;;;;;;5053247;28;20222;-60
2023/09/12 01:06:33;;;;;;;6.35;2.10;;;37.10;47.30;;;;;;5052790;28;20012;-60
2023/09/12 01:09:01;;;;;;;7.97;2.00;;;37.00;47.40;;;;;;5053775;28;20051;-64
2023/09/12 01:11:28;;;;;;;7.55;2.10;;;37.00;47.60;;;;;;5053490;28;20041;-62
2023/09/12 01:13:54;;;;;;;9.57;1.80;;;37.00;47.50;;;;;;5054140;28;20091;-63
2023/09/12 01:16:21;;;;;;;7.65;2.58;;;37.00;47.30;;;;;;5053184;28;20033;-60
2023/09/12 01:18:47;;;;;;;8.93;2.10;;;36.90;47.50;;;;;;5051476;28;20032;-60
2023/09/12 01:21:23;;;;;;;21.20;2.35;;;36.90;48.70;;;;;;5054668;28;20473;-60
2023/09/12 01:24:26;;;;;;;11.48;2.67;;;36.90;48.10;;;;;;5061216;28;20021;-62
2023/09/12 01:27:28;;;;;;;7.00;1.85;;;36.90;48.00;;;;;;5053651;28;20012;-62
2023/09/12 01:29:59;;;;;;;6.25;2.00;;;36.80;48.10;;;;;;5053336;28;20044;-62
2023/09/12 01:32:26;;;;;;;8.80;2.38;;;36.70;48.10;;;;;;5057303;28;20031;-61
2023/09/12 01:34:53;;;;;;;11.93;2.22;;;36.70;48.10;;;;;;5054534;28;20021;-64
2023/09/12 01:37:19;;;;;;;5.68;1.92;;;36.60;48.10;;;;;;5053243;28;20016;-60
2023/09/12 01:39:46;;;;;;;9.55;2.25;;;36.60;48.10;;;;;;5053869;28;20097;-62
2023/09/12 01:42:18;;;;;;;28.65;3.10;;;36.50;48.50;;;;;;5055333;28;20059;-57
2023/09/12 01:44:50;;;;;;;67.18;4.28;;;36.50;49.00;;;;;;5056827;28;20140;-60
2023/09/12 01:47:18;;;;;;;24.52;3.47;;;36.40;49.20;;;;;;5058343;28;20009;-62
2023/09/12 01:49:48;;;;;;;11.02;2.53;;;36.40;49.90;;;;;;5061335;28;20039;-62
2023/09/12 01:52:15;;;;;;;17.38;3.25;;;36.30;49.60;;;;;;5060824;28;20020;-61
2023/09/12 01:54:42;;;;;;;10.55;2.33;;;36.30;50.00;;;;;;5082884;22;20037;-60
2023/09/12 01:57:09;;;;;;;11.90;3.13;;;36.20;50.70;;;;;;5074588;28;20036;-60
2023/09/12 01:59:36;;;;;;;13.32;2.85;;;36.10;50.60;;;;;;5074920;28;20024;-60
2023/09/12 02:02:03;;;;;;;22.85;2.60;;;36.10;50.90;;;;;;5075393;28;20122;-58
2023/09/12 02:04:29;;;;;;;8.98;2.78;;;36.00;51.10;;;;;;5078658;28;20115;-61
2023/09/12 02:06:55;;;;;;;9.73;2.42;;;35.90;52.00;;;;;;5074959;28;20365;-62
2023/09/12 02:09:22;;;;;;;8.23;2.90;;;35.90;51.80;;;;;;5072433;28;20074;-63
2023/09/12 02:11:50;;;;;;;12.70;2.63;;;35.80;52.10;;;;;;5074469;28;20078;-61
2023/09/12 02:14:18;;;;;;;13.02;2.40;;;35.70;52.10;;;;;;5076720;28;21697;-60
2023/09/12 02:16:45;;;;;;;15.63;2.80;;;35.70;52.50;;;;;;5078606;28;20012;-61
2023/09/12 02:19:11;;;;;;;11.55;2.13;;;35.70;52.60;;;;;;5080506;28;20028;-61
2023/09/12 02:21:37;;;;;;;15.43;3.22;;;35.60;52.50;;;;;;5080090;28;20042;-63
2023/09/12 02:24:04;;;;;;;4.70;2.40;;;35.60;52.20;;;;;;5080059;28;20028;-63
2023/09/12 02:26:35;;;;;;;9.32;2.60;;;35.50;52.40;;;;;;5078336;28;20016;-61
2023/09/12 02:29:03;;;;;;;10.00;2.33;;;35.40;52.90;;;;;;5080782;28;20044;-62
2023/09/12 02:31:30;;;;;;;12.52;2.38;;;35.30;52.50;;;;;;5078096;28;20533;-61
2023/09/12 02:33:56;;;;;;;7.50;2.45;;;35.30;52.40;;;;;;5077658;28;20020;-61
2023/09/12 02:36:23;;;;;;;12.77;2.60;;;35.20;52.00;;;;;;5079359;28;20039;-62
2023/09/12 02:38:49;;;;;;;14.30;2.35;;;35.10;52.20;;;;;;5077981;28;20096;-61
2023/09/12 02:41:15;;;;;;;15.15;3.00;;;35.10;52.30;;;;;;5058564;28;20420;-63
2023/09/12 02:43:42;;;;;;;8.18;2.60;;;35.00;52.10;;;;;;5076717;28;20039;-63
2023/09/12 02:46:08;;;;;;;10.80;2.53;;;35.00;52.30;;;;;;5081596;28;20577;-61
2023/09/12 02:48:34;;;;;;;21.30;2.70;;;34.90;53.00;;;;;;5083558;28;20095;-61
2023/09/12 02:51:01;;;;;;;9.73;2.40;;;34.90;52.50;;;;;;5081650;28;20013;-61
2023/09/12 02:53:27;;;;;;;16.63;2.90;;;34.80;53.30;;;;;;5083076;28;20399;-62
2023/09/12 02:55:54;;;;;;;6.05;2.40;;;34.80;53.40;;;;;;5084915;28;20039;-64
2023/09/12 02:58:20;;;;;;;27.40;3.50;;;34.80;53.50;;;;;;5079587;28;20024;-60
2023/09/12 03:00:50;;;;;;;20.40;3.17;;;34.70;53.20;;;;;;5082491;28;20070;-59
2023/09/12 03:03:16;;;;;;;15.43;2.65;;;34.70;53.60;;;;;;5084645;28;20488;-62
2023/09/12 03:05:43;;;;;;;21.20;3.25;;;34.60;53.70;;;;;;5083572;28;20380;-60
2023/09/12 03:08:09;;;;;;;18.45;3.05;;;34.60;53.80;;;;;;5085021;28;20085;-63
2023/09/12 03:10:36;;;;;;;19.70;2.95;;;34.60;54.00;;;;;;5081995;28;20122;-62
2023/09/12 03:13:02;;;;;;;16.30;3.15;;;34.50;53.90;;;;;;5082425;28;20115;-62
2023/09/12 03:15:29;;;;;;;24.00;3.40;;;34.50;54.30;;;;;;5085438;28;20020;-61
2023/09/12 03:17:56;;;;;;;20.30;3.97;;;34.50;54.60;;;;;;5081953;28;20027;-59
2023/09/12 03:20:22;;;;;;;12.32;3.10;;;34.40;55.10;;;;;;5081612;28;20043;-59
2023/09/12 03:22:48;;;;;;;13.30;2.85;;;34.40;54.90;;;;;;5079735;28;20024;-60
2023/09/12 03:25:15;;;;;;;25.17;3.58;;;34.40;54.60;;;;;;5081206;28;20500;-62
2023/09/12 03:27:41;;;;;;;14.27;3.55;;;34.30;55.20;;;;;;5080043;28;20468;-59
2023/09/12 03:30:08;;;;;;;15.13;3.35;;;34.30;55.40;;;;;;5080566;28;20016;-58
2023/09/12 03:32:35;;;;;;;23.50;3.60;;;34.20;55.50;;;;;;5081663;28;20031;-59
2023/09/12 03:35:01;;;;;;;11.75;3.15;;;34.20;55.60;;;;;;5084228;28;20016;-58
2023/09/12 03:37:28;;;;;;;23.70;4.10;;;34.20;55.20;;;;;;5084257;28;20380;-59
2023/09/12 03:39:55;;;;;;;17.17;4.20;;;34.20;55.00;;;;;;5064523;28;20111;-59
2023/09/12 03:42:21;;;;;;;17.52;3.80;;;34.20;55.10;;;;;;5083574;28;20024;-58
2023/09/12 03:44:47;;;;;;;24.23;4.28;;;34.20;54.90;;;;;;5082240;28;20512;-61
2023/09/12 03:47:14;;;;;;;31.85;4.40;;;34.20;54.40;;;;;;5082933;28;20020;-61
2023/09/12 03:49:40;;;;;;;23.15;4.05;;;34.20;54.40;;;;;;5083407;28;20128;-62
2023/09/12 03:52:06;;;;;;;23.65;3.80;;;34.20;54.30;;;;;;5065102;28;20024;-60
2023/09/12 03:54:33;;;;;;;24.52;4.57;;;34.20;54.30;;;;;;5083207;28;20024;-61
2023/09/12 03:56:59;;;;;;;25.23;5.03;;;34.10;54.40;;;;;;5087388;28;20020;-61
2023/09/12 03:59:26;;;;;;;25.13;4.40;;;34.10;54.80;;;;;;5090750;28;20455;-63
2023/09/12 04:01:52;;;;;;;15.02;3.92;;;34.10;54.30;;;;;;5088124;28;20008;-58
2023/09/12 04:04:18;;;;;;;22.67;4.63;;;34.00;54.10;;;;;;5088358;28;20051;-59
2023/09/12 04:06:45;;;;;;;17.67;4.78;;;34.00;54.20;;;;;;5089327;28;20027;-59
2023/09/12 04:09:11;;;;;;;18.77;3.75;;;34.00;54.80;;;;;;5087301;28;20045;-62
2023/09/12 04:11:38;;;;;;;14.73;3.38;;;34.00;54.70;;;;;;5069457;28;20076;-61
2023/09/12 04:14:04;;;;;;;16.50;3.90;;;34.00;54.10;;;;;;5087982;28;20027;-59
2023/09/12 04:16:31;;;;;;;18.13;3.47;;;34.00;54.20;;;;;;5087934;28;20016;-59
2023/09/12 04:18:57;;;;;;;13.07;3.22;;;34.00;53.50;;;;;;5087302;28;20111;-59
2023/09/12 04:21:23;;;;;;;20.27;3.35;;;34.00;53.80;;;;;;5085380;28;20430;-60
2023/09/12 04:23:50;;;;;;;23.60;3.83;;;34.00;53.80;;;;;;5087636;28;20028;-61
2023/09/12 04:26:16;;;;;;;23.58;4.10;;;34.00;53.60;;;;;;5086529;28;20027;-60
2023/09/12 04:28:43;;;;;;;25.23;3.90;;;34.00;54.20;;;;;;5087523;28;20370;-59
2023/09/12 04:31:09;;;;;;;15.52;3.30;;;34.00;54.00;;;;;;5085992;28;20095;-60
2023/09/12 04:33:36;;;;;;;16.77;2.92;;;34.00;53.40;;;;;;5086623;28;20066;-60
2023/09/12 04:36:03;;;;;;;24.38;4.60;;;34.00;54.40;;;;;;5087382;28;20105;-61
2023/09/12 04:38:29;;;;;;;36.20;5.57;;;34.00;53.80;;;;;;5086070;28;20193;-60
2023/09/12 04:41:02;;;;;;;30.02;4.13;;;33.90;54.30;;;;;;5087623;28;20360;-61
2023/09/12 04:43:29;;;;;;;18.80;3.80;;;33.90;53.60;;;;;;5087404;28;20487;-63
2023/09/12 04:45:56;;;;;;;14.35;4.15;;;33.90;53.10;;;;;;5087309;28;20020;-61
2023/09/12 04:48:23;;;;;;;25.65;9.60;;;33.90;54.70;;;;;;5084443;28;20028;-66
2023/09/12 04:50:49;;;;;;;36.00;9.05;;;33.90;55.60;;;;;;5085519;28;20027;-64
2023/09/12 04:53:16;;;;;;;18.25;4.07;;;33.80;55.60;;;;;;5086339;28;20020;-62
2023/09/12 04:55:42;;;;;;;13.02;3.90;;;33.80;53.70;;;;;;5085689;28;21006;-59
2023/09/12 04:58:08;;;;;;;17.25;3.72;;;33.80;55.50;;;;;;5085707;28;20031;-61
2023/09/12 05:00:35;;;;;;;19.52;3.60;;;33.80;54.90;;;;;;5088304;28;20031;-62
2023/09/12 05:03:03;;;;;;;15.20;3.17;;;33.80;55.00;;;;;;5086771;28;21260;-61
2023/09/12 05:05:30;;;;;;;19.25;3.60;;;33.80;55.70;;;;;;5085525;28;20024;-63
2023/09/12 05:07:56;;;;;;;13.10;3.38;;;33.80;55.30;;;;;;5086523;28;20065;-59
2023/09/12 05:10:22;;;;;;;24.52;3.10;;;34.20;54.60;;;;;;5084521;28;20113;-63
2023/09/12 05:12:49;;;;;;;17.90;3.10;;;34.30;53.50;;;;;;5086776;28;20023;-58
2023/09/12 05:15:15;;;;;;;14.80;3.17;;;34.60;53.40;;;;;;5065828;28;20034;-61
2023/09/12 05:17:42;;;;;;;9.70;2.83;;;34.60;53.10;;;;;;5086743;28;20012;-59
2023/09/12 05:20:09;;;;;;;13.75;3.08;;;34.60;53.60;;;;;;5085841;28;20077;-60
2023/09/12 05:22:35;;;;;;;17.95;2.90;;;34.60;53.30;;;;;;5084511;28;20012;-60
2023/09/12 05:25:02;;;;;;;13.65;2.85;;;34.60;53.10;;;;;;5085519;28;20035;-62
2023/09/12 05:27:28;;;;;;;10.85;2.67;;;34.60;52.90;;;;;;5084681;28;20531;-61
2023/09/12 05:29:54;;;;;;;15.20;3.05;;;34.60;53.20;;;;;;5084452;28;20093;-59
2023/09/12 05:32:21;;;;;;;32.28;21.08;;;34.60;53.20;;;;;;5085156;28;20032;-62
2023/09/12 05:34:49;;;;;;;16.35;7.93;;;34.70;53.90;;;;;;5084774;28;20543;-64
2023/09/12 05:37:16;;;;;;;20.10;11.60;;;34.60;53.00;;;;;;5085308;28;20391;-62
2023/09/12 05:39:42;;;;;;;31.88;19.15;;;34.60;53.30;;;;;;5083543;28;20544;-62
2023/09/12 05:42:09;;;;;;;15.95;3.67;;;34.60;54.40;;;;;;5086952;28;20004;-59
2023/09/12 05:44:35;;;;;;;12.35;2.50;;;34.60;52.90;;;;;;5086459;28;20485;-60
2023/09/12 05:47:02;;;;;;;13.43;2.25;;;34.60;54.80;;;;;;5084307;28;20024;-60
2023/09/12 05:49:28;;;;;;;11.13;2.22;;;34.60;52.70;;;;;;5084238;28;20062;-60
2023/09/12 05:51:55;;;;;;;6.47;1.90;;;34.60;53.50;;;;;;5084018;28;20036;-62
2023/09/12 05:54:21;;;;;;;6.95;1.92;;;34.50;53.20;;;;;;5085673;28;20024;-62
2023/09/12 05:56:48;;;;;;;6.35;1.98;;;34.40;53.10;;;;;;5080949;28;20409;-63
2023/09/12 05:59:14;;;;;;;4.47;1.98;;;34.30;53.10;;;;;;5081320;28;20024;-60
2023/09/12 06:01:41;;;;;;;11.65;2.20;;;34.30;52.20;;;;;;5068594;28;20027;-61
2023/09/12 06:04:07;;;;;;;7.38;1.80;;;34.40;52.80;;;;;;5080463;28;20119;-58
2023/09/12 06:06:33;;;;;;;6.30;1.98;;;34.40;53.50;;;;;;5081762;28;20387;-62
2023/09/12 06:09:00;;;;;;;6.07;2.15;;;34.40;52.50;;;;;;5084872;28;20031;-61
2023/09/12 06:11:26;;;;;;;7.78;2.45;;;34.40;52.60;;;;;;5066219;28;20357;-62
2023/09/12 06:13:53;;;;;;;8.73;1.90;;;34.30;52.80;;;;;;5086061;28;20498;-61
2023/09/12 06:16:19;;;;;;;9.82;1.95;;;34.40;54.00;;;;;;5083266;28;20016;-63
2023/09/12 06:18:48;;;;;;;4.47;1.60;;;34.30;53.80;;;;;;5084093;28;20361;-61
2023/09/12 06:21:15;;;;;;;9.30;2.22;;;34.20;53.50;;;;;;5084698;28;20012;-60
2023/09/12 06:23:41;;;;;;;17.45;2.42;;;34.10;53.80;;;;;;5083145;28;20081;-59
2023/09/12 06:26:07;;;;;;;7.82;1.98;;;34.10;53.20;;;;;;5083208;28;20020;-60
2023/09/12 06:28:34;;;;;;;11.55;1.90;;;34.00;52.90;;;;;;5067696;28;20012;-59
2023/09/12 06:31:00;;;;;;;2.90;1.45;;;34.00;52.30;;;;;;5083933;28;20020;-62
2023/09/12 06:33:28;;;;;;;5.07;1.45;;;33.90;52.50;;;;;;5065165;28;20020;-60
2023/09/12 06:35:54;;;;;;;5.55;1.63;;;33.90;53.00;;;;;;5083628;28;20162;-63
2023/09/12 06:38:24;;;;;;;2.28;1.15;;;33.90;52.20;;;;;;5082572;28;20024;-60
2023/09/12 06:40:51;;;;;;;3.28;1.77;;;33.90;52.20;;;;;;5067297;28;20019;-59
2023/09/12 06:43:17;;;;;;;10.23;5.18;;;33.80;52.10;;;;;;5082625;28;20024;-61
2023/09/12 06:45:45;;;;;;;5.32;4.90;;;33.80;52.70;;;;;;5084972;28;20090;-61
2023/09/12 06:48:11;;;;;;;6.07;5.50;;;33.80;52.80;;;;;;5082647;28;20543;-60
2023/09/12 06:50:38;;;;;;;8.85;5.78;;;33.80;53.00;;;;;;5082068;28;20326;-60
2023/09/12 06:53:10;;;;;;;8.02;5.70;;;33.70;53.20;;;;;;5082447;28;20016;-62
2023/09/12 06:55:37;;;;;;;10.95;9.90;;;33.60;53.60;;;;;;5082615;28;20022;-61
2023/09/12 06:58:03;;;;;;;6.65;1.55;;;33.50;53.50;;;;;;5083056;28;20476;-62
2023/09/12 07:00:31;;;;;;;11.63;1.98;;;33.50;53.80;;;;;;5085471;28;20099;-60
2023/09/12 07:02:57;;;;;;;4.72;1.75;;;33.50;54.00;;;;;;5082759;28;20063;-62
2023/09/12 07:05:23;;;;;;;8.10;1.92;;;33.40;53.90;;;;;;5084345;28;20249;-62
2023/09/12 07:07:50;;;;;;;5.60;1.95;;;33.50;53.90;;;;;;5083402;28;20087;-62
2023/09/12 07:10:16;;;;;;;7.70;1.95;;;33.50;53.90;;;;;;5082870;28;20102;-61
2023/09/12 07:12:43;;;;;;;6.15;2.08;;;33.40;53.90;;;;;;5085561;28;20061;-62
2023/09/12 07:15:09;;;;;;;2.92;1.65;;;33.40;53.90;;;;;;5084226;28;21454;-62
2023/09/12 07:17:36;;;;;;;4.70;1.90;;;33.50;53.90;;;;;;5082083;28;20073;-63
2023/09/12 07:20:02;;;;;;;5.35;1.70;;;33.50;54.10;;;;;;5083283;28;20103;-62
2023/09/12 07:22:29;;;;;;;5.00;1.80;;;33.50;54.30;;;;;;5081036;28;20027;-63
2023/09/12 07:24:55;;;;;;;4.32;2.05;;;33.50;54.10;;;;;;5082163;28;20016;-63
2023/09/12 07:27:21;;;;;;;6.57;2.20;;;33.50;54.10;;;;;;5082795;28;20012;-63
2023/09/12 07:29:48;;;;;;;7.43;2.40;;;33.50;54.40;;;;;;5085736;28;20012;-62
2023/09/12 07:32:14;;;;;;;7.00;1.85;;;33.40;54.00;;;;;;5089175;28;20044;-62
2023/09/12 07:34:45;;;;;;;4.35;1.63;;;33.40;54.30;;;;;;5086692;28;20530;-63
2023/09/12 07:37:12;;;;;;;8.50;2.00;;;33.40;54.50;;;;;;5087128;28;20020;-64
2023/09/12 07:39:38;;;;;;;6.28;1.67;;;33.40;55.20;;;;;;5087688;28;20028;-62
2023/09/12 07:42:05;;;;;;;3.22;1.60;;;33.30;54.60;;;;;;5087984;28;20059;-62
2023/09/12 07:44:31;;;;;;;3.20;1.77;;;33.30;54.80;;;;;;5087338;28;20020;-62
2023/09/12 07:46:57;;;;;;;5.25;1.77;;;33.30;54.90;;;;;;5088685;28;20032;-61
2023/09/12 07:49:27;;;;;;;6.43;1.65;;;33.30;55.10;;;;;;5086536;28;20017;-64
2023/09/12 07:51:54;;;;;;;7.97;1.60;;;33.30;55.10;;;;;;5086821;28;20448;-62
2023/09/12 07:54:20;;;;;;;7.30;1.95;;;33.30;55.00;;;;;;5086947;28;20016;-62
2023/09/12 07:56:46;;;;;;;7.05;1.40;;;33.20;55.10;;;;;;5087022;28;20056;-64
2023/09/12 07:59:14;;;;;;;6.32;1.60;;;33.20;55.00;;;;;;5085967;28;20016;-63
2023/09/12 08:01:40;;;;;;;4.35;1.67;;;33.20;55.20;;;;;;5087243;28;20464;-62
2023/09/12 08:04:07;;;;;;;6.85;1.58;;;33.20;55.10;;;;;;5086802;28;20035;-68
2023/09/12 08:06:34;;;;;;;7.03;1.50;;;33.20;55.00;;;;;;5087251;28;20027;-63
2023/09/12 08:09:00;;;;;;;8.45;1.48;;;33.20;55.00;;;;;;5087191;28;20017;-63
2023/09/12 08:11:28;;;;;;;6.82;1.42;;;33.20;55.00;;;;;;5089566;28;20020;-62
2023/09/12 08:13:54;;;;;;;3.83;1.38;;;33.10;55.10;;;;;;5087245;28;20012;-61
2023/09/12 08:16:20;;;;;;;6.32;1.48;;;33.10;54.90;;;;;;5086513;28;20016;-63
2023/09/12 08:18:48;;;;;;;7.50;1.42;;;33.10;54.70;;;;;;5086105;28;20016;-61
2023/09/12 08:21:14;;;;;;;4.60;1.60;;;33.20;54.90;;;;;;5085120;28;20413;-63
2023/09/12 08:23:41;;;;;;;9.10;1.55;;;33.20;54.70;;;;;;5087107;28;20042;-62
2023/09/12 08:26:08;;;;;;;5.30;1.30;;;33.20;55.00;;;;;;5085595;28;20020;-58
2023/09/12 08:28:35;;;;;;;5.95;1.27;;;33.10;55.00;;;;;;5084806;28;20008;-61
2023/09/12 08:31:01;;;;;;;7.75;1.55;;;33.20;55.10;;;;;;5086826;28;20051;-63
2023/09/12 08:33:28;;;;;;;6.13;1.30;;;33.20;55.40;;;;;;5087166;28;20205;-64
2023/09/12 08:35:54;;;;;;;3.17;1.30;;;33.20;55.10;;;;;;5086299;28;20008;-61
2023/09/12 08:38:21;;;;;;;6.38;1.30;;;33.20;55.20;;;;;;5086045;28;20038;-61
2023/09/12 08:40:51;;;;;;;2.95;1.08;;;33.20;55.00;;;;;;5086701;28;20026;-60
2023/09/12 08:43:18;;;;;;;8.82;1.38;;;33.20;55.20;;;;;;5086958;28;20048;-62
2023/09/12 08:45:45;;;;;;;10.13;1.42;;;33.20;55.40;;;;;;5085424;28;20440;-62
2023/09/12 08:48:12;;;;;;;4.75;1.27;;;33.10;54.90;;;;;;5086802;28;20533;-63
2023/09/12 08:50:39;;;;;;;3.08;1.38;;;33.20;54.90;;;;;;5085596;28;20012;-63
2023/09/12 08:53:05;;;;;;;2.42;1.17;;;33.20;55.00;;;;;;5085614;28;20057;-60
2023/09/12 08:55:36;;;;;;;2.80;1.23;;;33.20;55.10;;;;;;5087883;28;20488;-61
2023/09/12 08:58:04;;;;;;;3.42;1.20;;;33.20;54.90;;;;;;5086471;28;20020;-61
2023/09/12 09:00:31;;;;;;;5.40;1.10;;;33.30;55.30;;;;;;5088423;28;20112;-59
2023/09/12 09:02:59;;;;;;;4.28;1.17;;;33.20;54.90;;;;;;5085247;28;20045;-61
2023/09/12 09:05:27;;;;;;;2.42;1.02;;;33.20;55.00;;;;;;5086319;28;20023;-62
2023/09/12 09:07:54;;;;;;;4.15;1.45;;;33.10;55.60;;;;;;5084386;28;20013;-61
2023/09/12 09:10:23;;;;;;;9.15;1.63;;;33.20;56.20;;;;;;5085946;28;20487;-62
2023/09/12 09:12:49;;;;;;;3.83;1.48;;;33.20;55.60;;;;;;5086366;28;20023;-64
2023/09/12 09:15:27;;;;;;;7.20;1.50;;;33.10;55.20;;;;;;5085512;28;20093;-62
2023/09/12 09:17:55;;;;;;;8.50;1.63;;;33.10;55.20;;;;;;5087260;28;20463;-62
2023/09/12 09:20:35;;;;;;;8.93;1.60;;;33.10;55.20;;;;;;5086910;28;20595;-61
2023/09/12 09:23:06;;;;;;;4.05;1.45;;;33.10;56.20;;;;;;5084081;28;20019;-62
2023/09/12 09:25:39;;;;;;;7.03;1.60;;;33.00;57.00;;;;;;5084511;28;20102;-62
2023/09/12 09:28:19;;;;;;;5.95;1.40;;;33.00;56.40;;;;;;5068687;28;20628;-61
2023/09/12 09:30:48;;;;;;;6.72;1.25;;;33.00;56.20;;;;;;5086324;28;20168;-61
2023/09/12 09:33:15;;;;;;;6.95;1.48;;;32.90;55.80;;;;;;5085469;28;20018;-62
2023/09/12 09:35:48;;;;;;;4.50;1.35;;;32.90;56.20;;;;;;5083536;28;20025;-62
2023/09/12 09:38:16;;;;;;;5.25;1.65;;;32.90;56.90;;;;;;5084599;28;20095;-61
2023/09/12 09:40:45;;;;;;;4.32;1.48;;;32.80;56.70;;;;;;5085448;28;20027;-62
2023/09/12 09:43:14;;;;;;;10.05;1.73;;;32.80;56.50;;;;;;5086230;28;20012;-63
2023/09/12 09:45:45;;;;;;;3.22;1.20;;;32.80;57.00;;;;;;5084162;28;20110;-62
2023/09/12 09:48:22;;;;;;;6.13;1.70;;;32.80;57.50;;;;;;5085382;28;20096;-64
2023/09/12 09:50:49;;;;;;;9.40;1.75;;;32.80;57.70;;;;;;5083203;28;20095;-62
2023/09/12 09:53:15;;;;;;;9.73;1.40;;;32.80;57.80;;;;;;5084766;28;20376;-63
2023/09/12 09:55:44;;;;;;;5.18;1.23;;;32.80;57.20;;;;;;5084773;28;20020;-62
2023/09/12 09:58:18;;;;;;;3.75;1.20;;;32.80;57.90;;;;;;5084085;28;20020;-61
2023/09/12 10:00:48;;;;;;;5.15;1.40;;;32.70;57.50;;;;;;5085546;28;20930;-63
2023/09/12 10:03:19;;;;;;;4.35;1.48;;;32.60;57.40;;;;;;5087384;28;20483;-63
2023/09/12 10:05:46;;;;;;;4.50;1.13;;;32.60;57.40;;;;;;5049730;28;20017;-62
2023/09/12 10:08:17;;;;;;;2.70;1.10;;;32.60;57.10;;;;;;5066575;28;20707;-63
2023/09/12 10:10:43;;;;;;;4.00;0.85;;;32.60;57.80;;;;;;5084639;28;20022;-63
2023/09/12 10:13:11;;;;;;;11.07;1.40;;;32.50;57.80;;;;;;5083926;28;20023;-63
2023/09/12 10:15:39;;;;;;;6.38;1.58;;;32.50;58.10;;;;;;5082898;28;20020;-61
2023/09/12 10:18:14;;;;;;;6.10;1.10;;;32.50;58.50;;;;;;5084140;28;20518;-62
2023/09/12 10:20:52;;;;;;;5.10;1.38;;;32.40;58.40;;;;;;5085254;28;20111;-63
2023/09/12 10:23:30;;;;;;;1.58;1.02;;;32.30;58.60;;;;;;5082446;28;20016;-63
2023/09/12 10:25:58;;;;;;;4.25;1.00;;;32.30;58.70;;;;;;5083334;28;20027;-61
2023/09/12 10:28:26;;;;;;;6.00;1.38;;;32.30;58.90;;;;;;5083057;28;20799;-62
2023/09/12 10:30:54;;;;;;;4.75;1.33;;;32.30;58.90;;;;;;5084731;28;20020;-61
2023/09/12 10:33:20;;;;;;;3.47;1.15;;;32.20;59.10;;;;;;5084066;28;20528;-62
2023/09/12 10:35:48;;;;;;;4.22;1.40;;;32.20;59.40;;;;;;5083369;28;20061;-64
2023/09/12 10:38:18;;;;;;;7.00;1.67;;;32.10;59.10;;;;;;5084275;28;20797;-63
2023/09/12 10:40:45;;;;;;;4.07;1.30;;;32.10;59.60;;;;;;5083401;28;20573;-63
2023/09/12 10:43:14;;;;;;;2.35;1.48;;;32.10;60.00;;;;;;5084911;28;20008;-62
2023/09/12 10:45:41;;;;;;;7.53;1.50;;;32.10;60.10;;;;;;5083538;28;20047;-62
2023/09/12 10:48:11;;;;;;;7.30;1.58;;;32.10;60.90;;;;;;5084782;28;20012;-62
2023/09/12 10:50:39;;;;;;;5.55;1.27;;;31.90;59.80;;;;;;5084668;28;20028;-63
2023/09/12 10:53:14;;;;;;;2.97;1.23;;;31.90;60.20;;;;;;5084506;28;20012;-62
2023/09/12 10:55:41;;;;;;;1.88;1.30;;;31.90;60.30;;;;;;5083670;28;20028;-63
2023/09/12 10:58:12;;;;;;;3.95;1.38;;;31.90;60.70;;;;;;5084482;28;20028;-63
2023/09/12 11:00:40;;;;;;;4.57;1.20;;;31.80;60.80;;;;;;5086000;28;20012;-63
2023/09/12 11:03:28;;;;;;;1.77;1.33;;;31.80;60.40;;;;;;5085265;28;20016;-64
2023/09/12 11:05:56;;;;;;;3.25;1.30;;;31.70;60.50;;;;;;5083909;28;20024;-63
2023/09/12 11:08:23;;;;;;;5.75;1.30;;;31.80;60.60;;;;;;5082169;28;20130;-63
2023/09/12 11:11:20;;;;;;;4.78;1.33;;;31.80;60.70;;;;;;5085040;28;20012;-63
2023/09/12 11:13:46;;;;;;;6.28;1.30;;;31.70;60.60;;;;;;5084373;28;20061;-63
2023/09/12 11:16:20;;;;;;;6.78;1.65;;;31.70;60.70;;;;;;5081555;28;20017;-63
2023/09/12 11:19:18;;;;;;;2.97;1.40;;;31.70;60.00;;;;;;5083625;28;20024;-63
2023/09/12 11:21:47;;;;;;;2.55;1.30;;;31.70;60.20;;;;;;5081856;28;20016;-64
2023/09/12 11:24:14;;;;;;;4.85;1.30;;;31.70;60.00;;;;;;5083821;28;20072;-62
2023/09/12 11:26:58;;;;;;;2.67;1.38;;;31.70;60.10;;;;;;5083232;28;20012;-62
2023/09/12 11:29:36;;;;;;;2.15;1.17;;;31.60;60.40;;;;;;5085586;28;20491;-62
2023/09/12 11:32:04;;;;;;;6.30;1.20;;;31.70;60.60;;;;;;5084250;28;20384;-61
2023/09/12 11:34:38;;;;;;;6.68;1.42;;;31.70;59.70;;;;;;5083242;28;20103;-63
2023/09/12 11:37:05;;;;;;;5.45;1.40;;;31.60;59.70;;;;;;5083929;28;20137;-62
2023/09/12 11:39:33;;;;;;;6.50;1.50;;;31.60;60.20;;;;;;5085072;28;20043;-63
2023/09/12 11:42:02;;;;;;;3.58;1.40;;;31.60;60.40;;;;;;5085082;28;20049;-64
2023/09/12 11:44:30;;;;;;;3.15;1.52;;;31.60;60.50;;;;;;5083404;28;20027;-61
2023/09/12 11:47:03;;;;;;;3.03;1.35;;;31.60;60.60;;;;;;5084121;28;20020;-62
2023/09/12 11:49:39;;;;;;;3.88;1.20;;;31.60;60.50;;;;;;5081512;28;20017;-62
2023/09/12 11:52:14;;;;;;;2.95;1.10;;;31.60;60.60;;;;;;5082919;28;20016;-64
2023/09/12 11:54:41;;;;;;;3.42;1.45;;;31.60;60.60;;;;;;5082134;28;20026;-61
2023/09/12 11:57:17;;;;;;;2.22;1.30;;;31.60;60.40;;;;;;5082869;28;20020;-61
2023/09/12 11:59:48;;;;;;;7.85;1.27;;;31.60;60.30;;;;;;5086269;28;20026;-64
2023/09/12 12:02:15;;;;;;;2.13;1.15;;;31.50;60.00;;;;;;5083941;28;20020;-62
2023/09/12 12:04:41;;;;;;;2.70;1.33;;;31.50;60.90;;;;;;5084426;28;20024;-64
2023/09/12 12:07:09;;;;;;;3.28;1.27;;;31.50;61.00;;;;;;5084671;28;20043;-62
2023/09/12 12:09:36;;;;;;;6.32;1.60;;;31.40;62.40;;;;;;5082344;28;20012;-63
2023/09/12 12:12:20;;;;;;;6.15;1.45;;;31.40;62.50;;;;;;5086361;28;20012;-63
2023/09/12 12:14:47;;;;;;;7.78;1.58;;;31.30;62.60;;;;;;5066170;28;20038;-61
2023/09/12 12:17:13;;;;;;;3.65;1.10;;;31.20;62.20;;;;;;5087402;28;20020;-62
2023/09/12 12:19:44;;;;;;;2.78;1.25;;;31.20;63.50;;;;;;5087450;28;20016;-62
2023/09/12 12:22:11;;;;;;;6.53;1.55;;;31.20;62.50;;;;;;5085559;28;20494;-61
2023/09/12 12:24:42;;;;;;;5.70;1.90;;;31.20;63.20;;;;;;5083943;28;20048;-64
2023/09/12 12:27:10;;;;;;;10.93;2.20;;;31.00;62.50;;;;;;5086193;28;20115;-63
2023/09/12 12:29:42;;;;;;;5.57;1.90;;;30.90;62.60;;;;;;5086452;28;20024;-61
2023/09/12 12:32:09;;;;;;;11.88;1.83;;;30.90;63.60;;;;;;5087208;28;20012;-62
2023/09/12 12:34:36;;;;;;;6.07;1.58;;;30.90;63.20;;;;;;5086246;28;20095;-62
2023/09/12 12:37:03;;;;;;;3.45;1.70;;;30.70;64.80;;;;;;5086033;28;20055;-64
2023/09/12 12:39:31;;;;;;;5.80;1.55;;;30.70;64.50;;;;;;5086208;28;20073;-64
2023/09/12 12:41:58;;;;;;;6.13;1.80;;;30.70;64.90;;;;;;5087518;28;20020;-62
2023/09/12 12:44:35;;;;;;;5.03;1.75;;;30.60;65.10;;;;;;5085651;28;20020;-63
2023/09/12 12:47:07;;;;;;;6.03;1.73;;;30.60;64.70;;;;;;5088324;28;20031;-62